createdAt,value
2022-08-16T00:05:02.174Z,25.70
2022-08-16T00:10:08.627Z,29.10
2022-08-16T00:15:51.986Z,26.30
2022-08-16T00:20:53.654Z,29.10
2022-08-16T00:26:34.963Z,30.90
2022-08-16T00:31:20.131Z,28.10
2022-08-16T00:36:27.881Z,27.10
2022-08-16T00:41:32.421Z,28.90
2022-08-16T00:47:06.140Z,26.70
2022-08-16T00:52:30.327Z,27.10
2022-08-16T00:57:58.302Z,28.30
2022-08-16T01:03:03.595Z,25.40
2022-08-16T01:08:35.120Z,18.90
2022-08-16T01:13:35.578Z,25.80
2022-08-16T01:18:55.898Z,24.60
2022-08-16T01:24:52.291Z,26.00
2022-08-16T01:30:19.517Z,22.20
2022-08-16T01:35:30.647Z,21.80
2022-08-16T01:40:38.691Z,27.50
2022-08-16T01:45:43.491Z,25.00
2022-08-16T01:51:09.217Z,24.30
2022-08-16T01:56:24.494Z,23.50
2022-08-16T02:01:29.960Z,24.00
2022-08-16T02:06:37.893Z,23.60
2022-08-16T02:11:48.558Z,23.70
2022-08-16T02:16:59.472Z,22.40
2022-08-16T02:22:08.927Z,21.30
2022-08-16T02:27:26.742Z,23.70
2022-08-16T02:32:49.000Z,24.90
2022-08-16T02:37:56.181Z,30.90
2022-08-16T02:42:59.514Z,27.90
2022-08-16T02:48:29.503Z,31.60
2022-08-16T02:53:27.075Z,27.80
2022-08-16T02:58:33.889Z,30.00
2022-08-16T03:04:39.792Z,30.70
2022-08-16T03:09:01.285Z,32.60
2022-08-16T03:14:07.389Z,34.50
2022-08-16T03:19:11.090Z,33.90
2022-08-16T03:24:29.260Z,31.30
2022-08-16T03:29:34.012Z,29.70
2022-08-16T03:34:37.048Z,33.00
2022-08-16T03:39:42.928Z,29.20
2022-08-16T03:44:47.554Z,34.10
2022-08-16T03:49:52.539Z,33.60
2022-08-16T03:54:58.266Z,34.00
2022-08-16T04:00:20.613Z,34.00
2022-08-16T04:05:47.442Z,33.10
2022-08-16T04:10:53.050Z,30.60
2022-08-16T04:15:59.422Z,35.40
2022-08-16T04:21:04.634Z,35.80
2022-08-16T04:26:08.260Z,35.10
2022-08-16T04:36:23.811Z,36.20
2022-08-16T04:41:32.897Z,35.70
2022-08-16T04:47:02.936Z,34.70
2022-08-16T04:52:05.878Z,37.20
2022-08-16T04:57:30.132Z,36.30
2022-08-16T05:02:41.503Z,33.50
2022-08-16T05:07:59.645Z,35.50
2022-08-16T05:13:04.861Z,33.00
2022-08-16T05:18:16.183Z,37.40
2022-08-16T05:23:21.154Z,36.50
2022-08-16T05:28:37.367Z,35.50
2022-08-16T05:33:42.096Z,35.20
2022-08-16T05:38:45.661Z,37.40
2022-08-16T05:43:49.477Z,35.60
2022-08-16T05:48:55.246Z,37.00
2022-08-16T05:53:59.884Z,32.30
2022-08-16T05:59:03.031Z,34.60
2022-08-16T06:04:12.888Z,33.10
2022-08-16T06:09:43.551Z,36.30
2022-08-16T06:19:54.889Z,32.40
2022-08-16T06:24:59.027Z,33.20
2022-08-16T06:30:04.135Z,38.40
2022-08-16T06:35:09.673Z,32.70
2022-08-16T06:40:15.929Z,33.80
2022-08-16T06:45:19.734Z,37.90
2022-08-16T06:50:29.699Z,31.50
2022-08-16T06:55:34.852Z,34.90
2022-08-16T07:00:42.996Z,31.20
2022-08-16T07:05:46.829Z,31.00
2022-08-16T07:10:51.224Z,32.60
2022-08-16T07:15:54.526Z,34.00
2022-08-16T07:21:01.979Z,29.00
2022-08-16T07:26:11.425Z,34.40
2022-08-16T07:31:38.083Z,29.20
2022-08-16T07:36:41.526Z,27.50
2022-08-16T07:41:48.521Z,26.30
2022-08-16T07:46:55.462Z,25.30
2022-08-16T07:51:59.728Z,28.00
2022-08-16T07:57:02.870Z,30.90
2022-08-16T08:02:06.278Z,27.10
2022-08-16T08:07:16.263Z,24.80
2022-08-16T08:12:31.612Z,29.30
2022-08-16T08:17:43.026Z,28.70
2022-08-16T08:22:49.386Z,24.70
2022-08-16T08:27:57.464Z,32.90
2022-08-16T08:33:01.314Z,23.80
2022-08-16T08:38:08.664Z,26.60
2022-08-16T08:43:17.960Z,27.50
2022-08-16T08:48:33.329Z,28.00
2022-08-16T08:53:39.907Z,28.70
2022-08-16T08:58:53.689Z,27.30
2022-08-16T09:03:58.677Z,22.80
2022-08-16T09:09:03.648Z,31.30
2022-08-16T09:14:07.318Z,19.40
2022-08-16T09:19:10.298Z,19.80
2022-08-16T09:24:13.342Z,22.30
2022-08-16T09:29:44.863Z,20.10
2022-08-16T09:34:48.973Z,22.40
2022-08-16T09:39:52.471Z,21.70
2022-08-16T09:45:11.181Z,20.90
2022-08-16T09:50:22.660Z,20.40
2022-08-16T09:55:29.064Z,19.80
2022-08-16T10:00:44.506Z,22.30
2022-08-16T10:05:49.705Z,22.70
2022-08-16T10:11:11.994Z,21.70
2022-08-16T10:21:23.574Z,21.20
2022-08-16T10:27:17.071Z,21.60
2022-08-16T10:31:53.629Z,21.40
2022-08-16T10:37:02.521Z,21.20
2022-08-16T10:42:07.139Z,19.00
2022-08-16T10:47:12.010Z,18.80
2022-08-16T10:52:19.036Z,20.00
2022-08-16T10:57:24.603Z,25.40
2022-08-16T11:02:57.560Z,23.70
2022-08-16T11:07:53.531Z,20.70
2022-08-16T11:13:21.156Z,26.40
2022-08-16T11:18:48.604Z,25.80
2022-08-16T11:23:57.566Z,26.60
2022-08-16T11:29:17.540Z,29.80
2022-08-16T11:34:22.015Z,23.10
2022-08-16T11:39:25.099Z,23.40
2022-08-16T11:44:45.376Z,25.60
2022-08-16T11:49:51.775Z,22.10
2022-08-16T11:54:57.055Z,25.60
2022-08-16T12:00:33.855Z,22.70
2022-08-16T12:05:35.360Z,24.50
2022-08-16T12:10:43.114Z,21.30
2022-08-16T12:15:47.552Z,23.30
2022-08-16T12:20:51.928Z,22.30
2022-08-16T12:25:58.556Z,20.80
2022-08-16T12:31:02.936Z,22.50
2022-08-16T12:36:06.203Z,22.80
2022-08-16T12:41:24.450Z,22.60
2022-08-16T12:46:29.950Z,25.10
2022-08-16T12:51:59.046Z,27.50
2022-08-16T12:57:03.195Z,26.40
2022-08-16T13:02:06.711Z,24.00
2022-08-16T13:07:16.508Z,27.90
2022-08-16T13:12:25.084Z,26.80
2022-08-16T13:17:29.813Z,26.40
2022-08-16T13:22:33.359Z,25.80
2022-08-16T13:28:01.680Z,30.40
2022-08-16T13:32:59.920Z,26.80
2022-08-16T13:38:03.680Z,30.60
2022-08-16T13:43:11.396Z,24.80
2022-08-16T13:48:21.838Z,27.50
2022-08-16T13:53:28.532Z,27.10
2022-08-16T13:58:37.143Z,26.10
2022-08-16T14:03:54.526Z,26.60
2022-08-16T14:08:59.323Z,27.70
2022-08-16T14:19:19.032Z,28.70
2022-08-16T14:24:30.244Z,26.90
2022-08-16T14:29:35.124Z,29.10
2022-08-16T14:34:41.940Z,27.80
2022-08-16T14:39:45.438Z,29.10
2022-08-16T14:44:49.332Z,23.80
2022-08-16T14:49:53.034Z,25.90
2022-08-16T14:54:56.581Z,24.60
2022-08-16T15:00:06.206Z,25.30
2022-08-16T15:05:12.021Z,20.80
2022-08-16T15:10:24.097Z,22.80
2022-08-16T15:15:30.151Z,28.60
2022-08-16T15:20:35.677Z,23.40
2022-08-16T15:25:47.186Z,23.70
2022-08-16T15:31:14.988Z,24.10
2022-08-16T15:36:20.543Z,21.80
2022-08-16T15:41:38.812Z,26.10
2022-08-16T15:46:56.941Z,23.60
2022-08-16T15:52:03.114Z,18.50
2022-08-16T15:57:11.686Z,19.50
2022-08-16T16:02:18.514Z,21.50
2022-08-16T16:07:33.327Z,21.30
2022-08-16T16:12:50.931Z,19.60
2022-08-16T16:17:58.391Z,19.40
2022-08-16T16:23:10.330Z,18.60
2022-08-16T16:29:05.447Z,21.20
2022-08-16T16:33:44.597Z,20.90
2022-08-16T16:38:49.667Z,24.40
2022-08-16T16:43:55.194Z,23.20
2022-08-16T16:48:58.713Z,25.40
2022-08-16T16:54:02.739Z,24.70
2022-08-16T16:59:09.797Z,27.50
2022-08-16T17:04:19.571Z,24.60
2022-08-16T17:09:25.371Z,22.30
2022-08-16T17:14:32.792Z,23.00
2022-08-16T17:19:41.210Z,28.10
2022-08-16T17:24:50.849Z,19.70
2022-08-16T17:29:55.535Z,25.50
2022-08-16T17:35:03.018Z,24.90
2022-08-16T17:40:25.865Z,31.40
2022-08-16T17:45:40.276Z,27.50
2022-08-16T17:50:43.964Z,20.50
2022-08-16T17:55:50.786Z,20.80
2022-08-16T18:00:57.978Z,21.50
2022-08-16T18:06:01.003Z,22.70
2022-08-16T18:11:06.550Z,24.40
2022-08-16T18:16:12.654Z,20.50
2022-08-16T18:21:34.681Z,20.50
2022-08-16T18:26:38.787Z,19.00
2022-08-16T18:31:41.890Z,19.40
2022-08-16T18:36:44.887Z,26.40
2022-08-16T18:41:48.069Z,25.30
2022-08-16T18:46:51.288Z,20.60
2022-08-16T18:51:59.443Z,24.90
2022-08-16T18:57:07.247Z,21.50
2022-08-16T19:02:57.117Z,23.40
2022-08-16T19:07:34.083Z,23.50
2022-08-16T19:12:42.148Z,28.10
2022-08-16T19:17:46.161Z,33.20
2022-08-16T19:23:10.145Z,37.70
2022-08-16T19:28:48.869Z,41.70
2022-08-16T19:33:40.287Z,38.80
2022-08-16T19:38:43.338Z,42.00
2022-08-16T19:43:47.634Z,35.30
2022-08-16T19:48:50.662Z,34.50
2022-08-16T19:53:53.735Z,35.10
2022-08-16T19:59:18.184Z,35.00
2022-08-16T20:04:21.929Z,32.60
2022-08-16T20:09:25.456Z,32.40
2022-08-16T20:14:28.479Z,35.20
2022-08-16T20:19:40.080Z,40.30
2022-08-16T20:24:43.985Z,39.20
2022-08-16T20:29:48.592Z,36.10
2022-08-16T20:34:55.130Z,36.10
2022-08-16T20:40:28.002Z,34.40
2022-08-16T20:45:26.980Z,36.20
2022-08-16T20:50:30.829Z,32.60
2022-08-16T20:55:36.606Z,34.60
2022-08-16T21:00:40.587Z,32.70
2022-08-16T21:05:44.090Z,31.70
2022-08-16T21:10:47.123Z,35.50
2022-08-16T21:15:50.111Z,32.80
2022-08-16T21:20:53.799Z,31.40
2022-08-16T21:25:59.238Z,31.60
2022-08-16T21:31:02.909Z,32.00
2022-08-16T21:36:06.415Z,33.60
2022-08-16T21:41:12.949Z,34.00
2022-08-16T21:46:16.047Z,33.90
2022-08-16T21:51:19.072Z,34.40
2022-08-16T21:56:22.110Z,33.50
2022-08-16T22:01:26.656Z,27.00
2022-08-16T22:06:29.723Z,34.60
2022-08-16T22:11:33.587Z,35.00
2022-08-16T22:16:39.804Z,33.20
2022-08-16T22:21:42.901Z,36.70
2022-08-16T22:26:45.910Z,30.50
2022-08-16T22:31:48.957Z,34.00
2022-08-16T22:36:51.969Z,35.10
2022-08-16T22:41:55.236Z,36.40
2022-08-16T22:46:58.603Z,39.20
2022-08-16T22:52:07.475Z,32.60
2022-08-16T22:57:10.580Z,42.60
2022-08-16T23:02:15.091Z,35.20
2022-08-16T23:07:18.297Z,34.00
2022-08-16T23:12:26.236Z,35.10
2022-08-16T23:17:32.325Z,35.00
2022-08-16T23:23:19.968Z,37.20
2022-08-16T23:28:16.834Z,34.20
2022-08-16T23:33:21.919Z,33.10
2022-08-16T23:38:37.571Z,34.60
2022-08-16T23:43:43.648Z,34.60
2022-08-16T23:49:56.907Z,35.20
2022-08-16T23:54:11.767Z,38.40
2022-08-16T23:59:14.779Z,33.20
